createdAt,value
2022-11-17T00:01:11.736Z,38.65
2022-11-17T00:03:42.043Z,39.83
2022-11-17T00:06:13.753Z,40.22
2022-11-17T00:08:44.240Z,38.80
2022-11-17T00:11:14.762Z,39.10
2022-11-17T00:14:01.214Z,43.97
2022-11-17T00:16:31.802Z,45.63
2022-11-17T00:19:21.575Z,41.92
2022-11-17T00:21:52.079Z,43.07
2022-11-17T00:24:22.404Z,46.78
2022-11-17T00:27:07.880Z,44.28
2022-11-17T00:29:39.406Z,42.22
2022-11-17T00:32:32.482Z,44.38
2022-11-17T00:35:03.007Z,43.60
2022-11-17T00:37:37.910Z,40.78
2022-11-17T00:40:09.223Z,40.42
2022-11-17T00:42:39.641Z,45.08
2022-11-17T00:45:10.474Z,42.47
2022-11-17T00:47:40.915Z,40.35
2022-11-17T00:50:11.705Z,46.28
2022-11-17T00:52:42.174Z,47.10
2022-11-17T00:55:12.622Z,46.58
2022-11-17T00:57:43.108Z,45.25
2022-11-17T01:00:13.975Z,46.45
2022-11-17T01:02:44.415Z,50.30
2022-11-17T01:05:14.788Z,48.22
2022-11-17T01:07:45.243Z,44.30
2022-11-17T01:10:15.834Z,45.25
2022-11-17T01:15:16.060Z,46.95
2022-11-17T01:17:46.398Z,47.13
2022-11-17T01:20:17.021Z,47.38
2022-11-17T01:25:17.186Z,45.95
2022-11-17T01:27:47.572Z,46.83
2022-11-17T01:30:20.320Z,44.13
2022-11-17T01:32:50.690Z,46.60
2022-11-17T01:35:21.031Z,48.80
2022-11-17T01:37:51.322Z,50.85
2022-11-17T01:40:21.753Z,50.33
2022-11-17T01:42:52.058Z,49.15
2022-11-17T01:45:26.890Z,50.67
2022-11-17T01:48:02.510Z,51.25
2022-11-17T01:50:51.390Z,56.05
2022-11-17T01:53:24.337Z,55.53
2022-11-17T01:56:00.684Z,57.13
2022-11-17T01:58:37.494Z,56.75
2022-11-17T02:01:08.151Z,92.72
2022-11-17T02:06:30.473Z,104.80
2022-11-17T02:09:02.045Z,106.70
2022-11-17T02:11:38.109Z,95.22
2022-11-17T02:14:09.111Z,80.22
2022-11-17T02:16:39.453Z,75.88
2022-11-17T02:19:11.985Z,73.88
2022-11-17T02:22:11.928Z,78.40
2022-11-17T02:25:22.996Z,82.03
2022-11-17T02:28:24.067Z,80.13
2022-11-17T02:31:29.875Z,76.32
2022-11-17T02:34:20.447Z,74.70
2022-11-17T02:39:38.402Z,73.63
2022-11-17T02:42:19.844Z,74.85
2022-11-17T02:45:04.958Z,73.70
2022-11-17T02:47:38.971Z,73.18
2022-11-17T02:50:11.989Z,78.75
2022-11-17T02:52:42.342Z,77.88
2022-11-17T02:55:13.870Z,78.78
2022-11-17T02:57:44.576Z,81.13
2022-11-17T03:00:18.940Z,85.20
2022-11-17T03:03:15.769Z,85.22
2022-11-17T03:06:12.466Z,95.63
2022-11-17T03:09:00.136Z,91.45
2022-11-17T03:11:52.824Z,90.28
2022-11-17T03:14:32.376Z,92.13
2022-11-17T03:17:32.253Z,105.30
2022-11-17T03:20:16.028Z,102.78
2022-11-17T03:23:02.944Z,98.65
2022-11-17T03:25:39.095Z,96.43
2022-11-17T03:28:12.943Z,97.60
2022-11-17T03:30:46.540Z,98.50
2022-11-17T03:33:22.212Z,96.55
2022-11-17T03:35:59.143Z,96.05
2022-11-17T03:38:34.132Z,90.07
2022-11-17T03:41:05.795Z,93.32
2022-11-17T03:43:36.085Z,92.97
2022-11-17T03:48:52.537Z,87.22
2022-11-17T03:51:27.959Z,90.65
2022-11-17T03:53:58.965Z,83.03
2022-11-17T03:56:53.502Z,89.93
2022-11-17T03:59:38.366Z,86.95
2022-11-17T04:02:08.343Z,88.60
2022-11-17T04:04:54.889Z,82.03
2022-11-17T04:07:24.887Z,85.50
2022-11-17T04:09:54.715Z,85.93
2022-11-17T04:12:35.499Z,87.78
2022-11-17T04:15:25.118Z,81.43
2022-11-17T04:17:55.210Z,73.10
2022-11-17T04:20:25.306Z,65.88
2022-11-17T04:23:06.167Z,75.15
2022-11-17T04:25:56.170Z,75.22
2022-11-17T04:28:43.055Z,70.47
2022-11-17T04:31:24.362Z,74.70
2022-11-17T04:34:02.847Z,70.05
2022-11-17T04:36:36.712Z,73.72
2022-11-17T04:39:07.798Z,75.95
2022-11-17T04:41:57.188Z,78.75
2022-11-17T04:44:30.307Z,74.97
2022-11-17T04:47:01.119Z,72.68
2022-11-17T04:49:31.440Z,72.60
2022-11-17T04:54:31.001Z,74.57
2022-11-17T04:57:01.185Z,75.50
2022-11-17T04:59:31.257Z,75.32
2022-11-17T05:02:05.864Z,76.20
2022-11-17T05:04:48.682Z,73.88
2022-11-17T05:07:18.622Z,72.75
2022-11-17T05:09:48.491Z,65.60
2022-11-17T05:12:29.143Z,75.07
2022-11-17T05:14:59.006Z,65.60
2022-11-17T05:17:28.965Z,51.22
2022-11-17T05:19:59.841Z,54.75
2022-11-17T05:22:49.081Z,50.90
2022-11-17T05:25:19.251Z,47.75
2022-11-17T05:27:49.151Z,47.42
2022-11-17T05:30:19.042Z,43.22
2022-11-17T05:32:49.082Z,44.05
2022-11-17T05:35:18.914Z,43.90
2022-11-17T05:37:48.811Z,39.97
2022-11-17T05:40:18.985Z,31.40
2022-11-17T05:45:23.097Z,33.67
2022-11-17T05:47:52.930Z,41.50
2022-11-17T05:50:22.770Z,44.33
2022-11-17T05:52:52.753Z,52.65
2022-11-17T05:55:22.768Z,53.15
2022-11-17T05:57:54.632Z,53.17
2022-11-17T06:00:24.616Z,52.83
2022-11-17T06:02:59.355Z,55.25
2022-11-17T06:05:29.674Z,50.42
2022-11-17T06:08:00.589Z,53.05
2022-11-17T06:10:30.652Z,56.60
2022-11-17T06:13:00.573Z,54.33
2022-11-17T06:15:30.703Z,53.90
2022-11-17T06:18:14.275Z,54.92
2022-11-17T06:20:50.740Z,54.20
2022-11-17T06:23:22.611Z,49.22
2022-11-17T06:25:52.819Z,53.03
2022-11-17T07:13:32.598Z,46.08
2022-11-17T07:16:16.338Z,48.10
2022-11-17T07:18:49.271Z,46.85
2022-11-17T07:21:19.607Z,45.83
2022-11-17T07:23:49.611Z,49.78
2022-11-17T07:26:19.892Z,49.15
2022-11-17T07:31:19.063Z,43.28
2022-11-17T07:33:49.209Z,41.17
2022-11-17T07:36:19.131Z,45.70
2022-11-17T07:38:49.252Z,41.33
2022-11-17T07:41:19.238Z,39.97
2022-11-17T07:43:49.107Z,41.17
2022-11-17T07:46:19.307Z,39.33
2022-11-17T07:51:19.134Z,35.57
2022-11-17T07:56:19.472Z,37.33
2022-11-17T07:58:49.545Z,35.13
2022-11-17T08:01:22.837Z,42.85
2022-11-17T08:03:53.011Z,40.78
2022-11-17T08:06:24.467Z,35.40
2022-11-17T08:08:55.270Z,43.92
2022-11-17T08:11:25.664Z,39.78
2022-11-17T08:13:55.790Z,39.72
2022-11-17T08:18:55.117Z,34.78
2022-11-17T08:21:25.421Z,36.90
2022-11-17T08:26:28.300Z,36.38
2022-11-17T08:28:59.909Z,42.63
2022-11-17T08:31:30.071Z,39.42
2022-11-17T08:36:29.282Z,36.25
2022-11-17T08:38:59.476Z,38.20
2022-11-17T08:43:58.926Z,35.57
2022-11-17T08:46:28.964Z,35.88
2022-11-17T08:48:58.994Z,38.13
2022-11-17T08:51:30.703Z,34.05
2022-11-17T08:54:01.892Z,34.50
2022-11-17T08:56:31.867Z,36.25
2022-11-17T08:59:04.061Z,34.30
2022-11-17T09:01:34.461Z,33.85
2022-11-17T09:04:04.492Z,33.03
2022-11-17T09:06:34.584Z,33.95
2022-11-17T09:09:07.213Z,35.38
2022-11-17T09:11:37.405Z,35.70
2022-11-17T09:16:46.590Z,35.72
2022-11-17T09:19:16.641Z,34.33
2022-11-17T09:21:46.834Z,34.90
2022-11-17T09:26:46.362Z,32.47
2022-11-17T09:31:45.773Z,36.33
2022-11-17T09:34:15.774Z,36.78
2022-11-17T09:36:46.621Z,36.50
2022-11-17T09:39:17.160Z,37.60
2022-11-17T09:41:50.349Z,38.35
2022-11-17T09:44:42.372Z,37.70
2022-11-17T09:47:47.299Z,34.10
2022-11-17T09:50:23.979Z,36.13
2022-11-17T09:53:18.043Z,40.75
2022-11-17T09:56:00.026Z,39.97
2022-11-17T09:58:54.046Z,37.83
2022-11-17T10:01:25.319Z,41.38
2022-11-17T10:03:56.890Z,38.33
2022-11-17T10:06:30.433Z,37.42
2022-11-17T10:09:25.728Z,40.10
2022-11-17T10:11:59.933Z,39.90
2022-11-17T10:14:31.915Z,41.88
2022-11-17T10:17:02.125Z,41.67
2022-11-17T10:22:23.276Z,41.95
2022-11-17T10:24:57.267Z,40.03
2022-11-17T10:27:30.166Z,42.97
2022-11-17T10:30:22.566Z,43.42
2022-11-17T10:32:56.649Z,44.45
2022-11-17T10:35:29.111Z,43.78
2022-11-17T10:38:21.006Z,45.78
2022-11-17T10:40:54.215Z,45.58
2022-11-17T10:43:30.725Z,44.80
2022-11-17T10:46:06.519Z,44.92
2022-11-17T10:48:40.262Z,43.67
2022-11-17T10:51:25.530Z,45.47
2022-11-17T10:54:24.253Z,44.15
2022-11-17T10:56:57.905Z,45.38
2022-11-17T10:59:53.435Z,48.15
2022-11-17T11:02:41.601Z,46.67
2022-11-17T11:05:15.469Z,48.35
2022-11-17T11:07:45.769Z,48.08
2022-11-17T11:13:01.067Z,49.88
2022-11-17T11:15:37.220Z,49.83
2022-11-17T11:18:17.140Z,52.03
2022-11-17T11:21:22.755Z,50.90
2022-11-17T11:24:22.992Z,49.17
2022-11-17T11:27:28.662Z,51.33
2022-11-17T11:30:09.025Z,55.72
2022-11-17T11:35:56.691Z,56.25
2022-11-17T11:38:52.388Z,56.20
2022-11-17T11:41:54.265Z,61.67
2022-11-17T11:44:44.102Z,57.95
2022-11-17T11:47:40.534Z,57.50
2022-11-17T11:50:20.952Z,62.13
2022-11-17T11:55:35.539Z,60.03
2022-11-17T11:58:22.999Z,63.78
2022-11-17T12:01:09.762Z,67.65
2022-11-17T12:03:50.898Z,65.18
2022-11-17T12:06:51.495Z,71.57
2022-11-17T12:09:43.652Z,61.10
2022-11-17T12:12:32.491Z,63.65
2022-11-17T12:15:35.790Z,63.42
2022-11-17T12:18:33.030Z,64.45
2022-11-17T12:21:13.802Z,61.95
2022-11-17T12:24:13.131Z,62.45
2022-11-17T12:26:43.974Z,66.43
2022-11-17T12:29:30.295Z,63.63
2022-11-17T12:32:03.093Z,71.03
2022-11-17T12:34:38.928Z,71.78
2022-11-17T12:37:23.713Z,68.35
2022-11-17T12:40:00.927Z,71.43
2022-11-17T12:42:34.935Z,69.38
2022-11-17T12:45:11.577Z,65.10
2022-11-17T12:48:04.775Z,69.40
2022-11-17T12:51:00.516Z,63.17
2022-11-17T12:54:08.171Z,62.85
2022-11-17T12:56:55.699Z,66.20
2022-11-17T13:00:00.329Z,68.95
2022-11-17T13:02:48.534Z,72.25
2022-11-17T13:05:24.934Z,72.53
2022-11-17T13:08:26.552Z,70.63
2022-11-17T13:11:08.941Z,72.03
2022-11-17T13:13:42.606Z,73.78
2022-11-17T13:16:24.348Z,78.45
2022-11-17T13:18:55.227Z,75.03
2022-11-17T13:21:34.667Z,76.32
2022-11-17T13:24:11.614Z,85.47
2022-11-17T13:26:42.428Z,81.30
2022-11-17T13:29:22.699Z,73.25
2022-11-17T13:31:53.367Z,73.75
2022-11-17T13:34:23.937Z,80.20
2022-11-17T13:37:00.779Z,80.50
2022-11-17T13:39:31.868Z,80.00
2022-11-17T13:42:05.520Z,80.32
2022-11-17T13:44:37.026Z,74.13
2022-11-17T13:47:24.113Z,73.43
2022-11-17T13:49:54.463Z,72.03
2022-11-17T13:52:46.531Z,74.55
2022-11-17T13:55:23.195Z,76.47
2022-11-17T13:58:05.237Z,68.05
2022-11-17T14:00:36.344Z,69.00
2022-11-17T14:03:28.336Z,70.00
2022-11-17T14:05:59.640Z,71.18
2022-11-17T14:08:34.304Z,67.05
2022-11-17T14:11:24.687Z,68.70
2022-11-17T14:14:03.402Z,69.10
2022-11-17T14:16:45.038Z,68.63
2022-11-17T14:19:34.039Z,72.95
2022-11-17T14:22:31.801Z,74.70
2022-11-17T14:25:03.451Z,79.07
2022-11-17T14:27:42.791Z,86.90
2022-11-17T14:30:15.743Z,94.43
2022-11-17T14:32:47.128Z,92.43
2022-11-17T14:37:50.526Z,92.93
2022-11-17T14:40:22.813Z,91.45
2022-11-17T14:42:53.744Z,82.45
2022-11-17T14:45:29.480Z,85.25
2022-11-17T14:47:59.976Z,85.53
2022-11-17T14:50:31.463Z,79.68
2022-11-17T14:53:02.466Z,77.75
2022-11-17T14:55:33.361Z,70.90
2022-11-17T14:58:04.017Z,70.75
2022-11-17T15:00:35.439Z,74.05
2022-11-17T15:03:05.959Z,68.80
2022-11-17T15:08:08.197Z,71.00
2022-11-17T15:10:38.754Z,70.72
2022-11-17T15:18:14.961Z,68.25
2022-11-17T15:20:45.456Z,72.38
2022-11-17T15:23:16.001Z,78.32
2022-11-17T15:25:46.851Z,72.25
2022-11-17T15:28:22.423Z,74.22
2022-11-17T15:30:54.647Z,71.88
2022-11-17T15:33:25.369Z,79.03
2022-11-17T15:36:09.717Z,77.07
2022-11-17T15:38:42.069Z,69.82
2022-11-17T15:41:15.672Z,71.30
2022-11-17T15:43:47.822Z,67.57
2022-11-17T15:46:21.409Z,66.43
2022-11-17T15:48:59.467Z,65.05
2022-11-17T15:51:31.524Z,60.20
2022-11-17T15:54:03.041Z,63.38
2022-11-17T15:56:39.696Z,59.20
2022-11-17T15:59:10.344Z,61.75
2022-11-17T16:01:42.890Z,61.70
2022-11-17T16:04:18.218Z,60.28
2022-11-17T16:06:49.924Z,62.70
2022-11-17T16:09:20.588Z,62.45
2022-11-17T16:11:52.375Z,62.75
2022-11-17T16:14:23.671Z,65.40
2022-11-17T16:16:55.394Z,62.90
2022-11-17T16:19:26.304Z,71.03
2022-11-17T16:21:58.010Z,70.00
2022-11-17T16:24:29.071Z,72.38
2022-11-17T16:27:00.693Z,67.72
2022-11-17T16:29:31.504Z,71.55
2022-11-17T16:34:36.958Z,69.22
2022-11-17T16:37:07.746Z,74.90
2022-11-17T16:39:38.135Z,73.07
2022-11-17T16:42:09.795Z,72.50
2022-11-17T16:44:40.262Z,77.20
2022-11-17T16:49:41.095Z,71.70
2022-11-17T16:54:41.516Z,76.10
2022-11-17T16:57:12.230Z,71.78
2022-11-17T16:59:42.646Z,80.82
2022-11-17T17:02:16.247Z,76.45
2022-11-17T17:04:47.831Z,77.75
2022-11-17T17:07:19.134Z,76.72
2022-11-17T17:09:49.722Z,77.90
2022-11-17T17:14:50.931Z,74.93
2022-11-17T17:17:21.544Z,78.13
2022-11-17T17:22:22.218Z,73.63
2022-11-17T17:24:52.652Z,69.35
2022-11-17T17:27:24.434Z,69.82
2022-11-17T17:29:58.964Z,66.38
2022-11-17T17:32:29.663Z,68.57
2022-11-17T17:35:00.330Z,68.35
2022-11-17T17:37:30.895Z,67.35
2022-11-17T17:42:32.719Z,65.75
2022-11-17T17:45:03.337Z,64.68
2022-11-17T17:50:03.912Z,62.92
2022-11-17T17:52:34.460Z,62.00
2022-11-17T17:57:34.936Z,61.57
2022-11-17T18:00:06.680Z,60.15
2022-11-17T18:02:38.307Z,56.42
2022-11-17T18:05:09.278Z,58.58
2022-11-17T18:07:39.898Z,59.33
2022-11-17T18:12:47.859Z,60.20
2022-11-17T18:15:20.336Z,58.60
2022-11-17T18:17:52.309Z,54.47
2022-11-17T18:20:25.431Z,58.85
2022-11-17T18:22:58.324Z,57.95
2022-11-17T18:25:29.040Z,63.22
2022-11-17T18:27:59.470Z,58.55
2022-11-17T18:30:29.913Z,58.05
2022-11-17T18:33:02.943Z,57.03
2022-11-17T18:35:33.840Z,61.42
2022-11-17T18:40:36.286Z,59.30
2022-11-17T18:43:07.209Z,58.65
2022-11-17T18:45:40.566Z,61.67
2022-11-17T18:48:18.293Z,61.30
2022-11-17T18:51:17.775Z,64.93
2022-11-17T18:53:39.498Z,62.28
2022-11-17T18:56:12.907Z,64.05
2022-11-17T18:58:45.408Z,62.30
2022-11-17T19:01:22.030Z,57.88
2022-11-17T19:03:56.292Z,56.28
2022-11-17T19:06:30.597Z,55.75
2022-11-17T19:09:02.267Z,54.95
2022-11-17T19:11:35.029Z,54.88
2022-11-17T19:14:07.507Z,58.75
2022-11-17T19:16:44.064Z,55.40
2022-11-17T19:19:16.072Z,57.85
2022-11-17T19:21:46.879Z,55.42
2022-11-17T19:24:17.596Z,57.80
2022-11-17T19:26:49.511Z,57.90
2022-11-17T19:29:20.211Z,56.28
2022-11-17T19:31:51.412Z,50.60
2022-11-17T19:34:22.273Z,56.15
2022-11-17T19:36:52.713Z,55.83
2022-11-17T19:39:23.252Z,58.55
2022-11-17T19:44:23.740Z,60.25
2022-11-17T19:49:24.247Z,56.28
2022-11-17T19:54:25.244Z,52.83
2022-11-17T19:56:55.675Z,55.80
2022-11-17T19:59:26.128Z,51.28
2022-11-17T20:01:56.608Z,52.88
2022-11-17T20:06:57.689Z,54.40
2022-11-17T20:09:28.192Z,54.92
2022-11-17T20:11:58.641Z,52.08
2022-11-17T20:14:29.070Z,56.08
2022-11-17T20:16:59.625Z,55.25
2022-11-17T20:22:00.159Z,54.33
2022-11-17T20:27:01.161Z,54.47
2022-11-17T20:29:31.706Z,54.85
2022-11-17T20:32:02.165Z,52.42
2022-11-17T20:34:32.773Z,55.38
2022-11-17T20:39:32.978Z,56.70
2022-11-17T20:42:03.640Z,56.03
2022-11-17T20:47:04.300Z,56.38
2022-11-17T20:49:34.664Z,58.95
2022-11-17T20:52:09.086Z,56.95
2022-11-17T20:54:42.487Z,58.95
2022-11-17T20:57:12.977Z,58.03
2022-11-17T20:59:43.433Z,59.50
2022-11-17T21:02:14.975Z,60.10
2022-11-17T21:04:45.433Z,59.30
2022-11-17T21:07:15.955Z,60.95
2022-11-17T21:12:16.285Z,61.13
2022-11-17T21:14:46.877Z,62.75
2022-11-17T21:20:06.997Z,59.90
2022-11-17T21:22:37.444Z,59.92
2022-11-17T21:25:08.383Z,57.22
2022-11-17T21:27:38.908Z,57.58
2022-11-17T21:30:11.934Z,58.47
2022-11-17T21:32:42.413Z,56.42
2022-11-17T21:35:12.958Z,56.40
2022-11-17T21:40:13.557Z,53.20
2022-11-17T21:42:44.248Z,61.85
2022-11-17T21:45:15.108Z,52.35
2022-11-17T21:47:45.604Z,52.67
2022-11-17T21:50:16.049Z,55.17
2022-11-17T21:52:46.498Z,57.40
2022-11-17T21:55:17.283Z,51.92
2022-11-17T21:57:47.845Z,55.38
2022-11-17T22:00:18.648Z,54.67
2022-11-17T22:02:49.148Z,54.35
2022-11-17T22:05:20.168Z,53.92
2022-11-17T22:07:51.029Z,59.47
2022-11-17T22:10:21.399Z,61.13
2022-11-17T22:12:51.890Z,56.08
2022-11-17T22:15:22.324Z,60.83
2022-11-17T22:17:52.828Z,57.58
2022-11-17T22:22:56.341Z,56.57
2022-11-17T22:25:43.702Z,57.28
2022-11-17T22:28:16.872Z,53.47
2022-11-17T22:30:47.371Z,54.53
2022-11-17T22:33:18.330Z,55.97
2022-11-17T22:35:48.733Z,53.65
2022-11-17T22:38:19.888Z,53.78
2022-11-17T22:40:50.612Z,55.72
2022-11-17T22:43:21.089Z,58.10
2022-11-17T22:46:12.069Z,61.67
2022-11-17T22:48:42.715Z,66.03
2022-11-17T22:53:43.082Z,63.50
2022-11-17T22:56:13.566Z,59.33
2022-11-17T22:58:49.456Z,58.58
2022-11-17T23:01:20.486Z,58.95
2022-11-17T23:06:20.980Z,56.67
2022-11-17T23:11:36.509Z,57.65
2022-11-17T23:14:10.083Z,60.67
2022-11-17T23:16:40.985Z,57.50
2022-11-17T23:19:16.110Z,58.17
2022-11-17T23:21:46.777Z,59.15
2022-11-17T23:24:17.423Z,57.33
2022-11-17T23:29:17.801Z,57.53
2022-11-17T23:31:48.524Z,57.83
2022-11-17T23:34:18.985Z,62.58
2022-11-17T23:36:49.458Z,64.18
2022-11-17T23:39:19.973Z,62.65
2022-11-17T23:44:20.355Z,61.25
2022-11-17T23:49:20.528Z,58.95
2022-11-17T23:51:51.050Z,60.78
2022-11-17T23:54:21.566Z,60.92
2022-11-17T23:56:55.133Z,61.35
2022-11-17T23:59:25.587Z,61.78
